sensor_id;sensor_type;location;lat;lon;timestamp;P1;durP1;ratioP1;P2;durP2;ratioP2
21122;SDS011;10719;48.130;11.630;2022-12-31T00:01:14;0.30;;;0.30;;
21122;SDS011;10719;48.130;11.630;2022-12-31T00:03:41;0.43;;;0.22;;
21122;SDS011;10719;48.130;11.630;2022-12-31T00:06:11;0.38;;;0.30;;
21122;SDS011;10719;48.130;11.630;2022-12-31T00:08:38;0.45;;;0.30;;
21122;SDS011;10719;48.130;11.630;2022-12-31T00:11:03;2.72;;;0.32;;
21122;SDS011;10719;48.130;11.630;2022-12-31T00:13:29;0.20;;;0.20;;
21122;SDS011;10719;48.130;11.630;2022-12-31T00:16:03;0.93;;;0.40;;
21122;SDS011;10719;48.130;11.630;2022-12-31T00:18:33;0.28;;;0.28;;
21122;SDS011;10719;48.130;11.630;2022-12-31T00:21:02;0.20;;;0.20;;
21122;SDS011;10719;48.130;11.630;2022-12-31T00:23:32;0.10;;;0.10;;
21122;SDS011;10719;48.130;11.630;2022-12-31T00:26:02;0.30;;;0.30;;
21122;SDS011;10719;48.130;11.630;2022-12-31T00:28:33;0.15;;;0.15;;
21122;SDS011;10719;48.130;11.630;2022-12-31T00:31:06;0.20;;;0.20;;
21122;SDS011;10719;48.130;11.630;2022-12-31T00:33:35;0.20;;;0.20;;
21122;SDS011;10719;48.130;11.630;2022-12-31T00:36:20;0.20;;;0.20;;
21122;SDS011;10719;48.130;11.630;2022-12-31T00:38:48;0.20;;;0.20;;
21122;SDS011;10719;48.130;11.630;2022-12-31T00:41:15;0.20;;;0.20;;
21122;SDS011;10719;48.130;11.630;2022-12-31T00:43:41;0.20;;;0.20;;
21122;SDS011;10719;48.130;11.630;2022-12-31T00:46:07;0.35;;;0.20;;
21122;SDS011;10719;48.130;11.630;2022-12-31T00:48:34;0.20;;;0.20;;
21122;SDS011;10719;48.130;11.630;2022-12-31T00:51:00;1.27;;;0.30;;
21122;SDS011;10719;48.130;11.630;2022-12-31T00:53:28;0.17;;;0.17;;
21122;SDS011;10719;48.130;11.630;2022-12-31T00:56:00;0.52;;;0.20;;
21122;SDS011;10719;48.130;11.630;2022-12-31T00:58:27;0.28;;;0.20;;
21122;SDS011;10719;48.130;11.630;2022-12-31T01:00:53;0.20;;;0.20;;
21122;SDS011;10719;48.130;11.630;2022-12-31T01:03:18;0.10;;;0.10;;
21122;SDS011;10719;48.130;11.630;2022-12-31T01:05:44;0.20;;;0.20;;
21122;SDS011;10719;48.130;11.630;2022-12-31T01:08:09;0.82;;;0.30;;
21122;SDS011;10719;48.130;11.630;2022-12-31T01:10:35;0.20;;;0.20;;
21122;SDS011;10719;48.130;11.630;2022-12-31T01:13:19;0.10;;;0.10;;
21122;SDS011;10719;48.130;11.630;2022-12-31T01:15:45;0.20;;;0.20;;
21122;SDS011;10719;48.130;11.630;2022-12-31T01:18:10;0.65;;;0.30;;
21122;SDS011;10719;48.130;11.630;2022-12-31T01:20:37;0.28;;;0.28;;
21122;SDS011;10719;48.130;11.630;2022-12-31T01:23:05;0.20;;;0.20;;
21122;SDS011;10719;48.130;11.630;2022-12-31T01:25:38;0.30;;;0.30;;
21122;SDS011;10719;48.130;11.630;2022-12-31T01:28:05;0.20;;;0.20;;
21122;SDS011;10719;48.130;11.630;2022-12-31T01:30:32;3.38;;;0.30;;
21122;SDS011;10719;48.130;11.630;2022-12-31T01:32:58;0.20;;;0.20;;
21122;SDS011;10719;48.130;11.630;2022-12-31T01:35:24;0.20;;;0.20;;
21122;SDS011;10719;48.130;11.630;2022-12-31T01:37:49;0.95;;;0.40;;
21122;SDS011;10719;48.130;11.630;2022-12-31T01:40:15;0.15;;;0.15;;
21122;SDS011;10719;48.130;11.630;2022-12-31T01:42:41;0.20;;;0.20;;
21122;SDS011;10719;48.130;11.630;2022-12-31T01:45:10;0.22;;;0.20;;
21122;SDS011;10719;48.130;11.630;2022-12-31T01:47:41;0.20;;;0.20;;
21122;SDS011;10719;48.130;11.630;2022-12-31T01:50:15;0.45;;;0.30;;
21122;SDS011;10719;48.130;11.630;2022-12-31T01:52:45;1.05;;;0.22;;
21122;SDS011;10719;48.130;11.630;2022-12-31T01:57:45;0.20;;;0.20;;
21122;SDS011;10719;48.130;11.630;2022-12-31T02:00:13;0.20;;;0.20;;
21122;SDS011;10719;48.130;11.630;2022-12-31T02:02:39;0.65;;;0.32;;
21122;SDS011;10719;48.130;11.630;2022-12-31T02:05:08;0.32;;;0.20;;
21122;SDS011;10719;48.130;11.630;2022-12-31T02:07:48;0.20;;;0.20;;
21122;SDS011;10719;48.130;11.630;2022-12-31T02:10:13;0.38;;;0.30;;
21122;SDS011;10719;48.130;11.630;2022-12-31T02:12:39;0.30;;;0.30;;
21122;SDS011;10719;48.130;11.630;2022-12-31T02:15:05;0.32;;;0.32;;
21122;SDS011;10719;48.130;11.630;2022-12-31T02:17:32;2.47;;;0.28;;
21122;SDS011;10719;48.130;11.630;2022-12-31T02:20:30;0.30;;;0.30;;
21122;SDS011;10719;48.130;11.630;2022-12-31T02:23:05;0.10;;;0.10;;
21122;SDS011;10719;48.130;11.630;2022-12-31T02:31:32;0.20;;;0.20;;
21122;SDS011;10719;48.130;11.630;2022-12-31T02:34:26;0.47;;;0.30;;
21122;SDS011;10719;48.130;11.630;2022-12-31T02:37:01;0.20;;;0.20;;
21122;SDS011;10719;48.130;11.630;2022-12-31T02:39:30;0.20;;;0.20;;
21122;SDS011;10719;48.130;11.630;2022-12-31T02:41:58;0.20;;;0.20;;
21122;SDS011;10719;48.130;11.630;2022-12-31T02:44:27;0.20;;;0.20;;
21122;SDS011;10719;48.130;11.630;2022-12-31T02:49:37;0.20;;;0.20;;
21122;SDS011;10719;48.130;11.630;2022-12-31T02:57:27;0.20;;;0.20;;
21122;SDS011;10719;48.130;11.630;2022-12-31T03:00:11;0.22;;;0.22;;
21122;SDS011;10719;48.130;11.630;2022-12-31T03:02:57;0.28;;;0.28;;
21122;SDS011;10719;48.130;11.630;2022-12-31T03:05:26;0.20;;;0.20;;
21122;SDS011;10719;48.130;11.630;2022-12-31T03:07:53;1.30;;;0.30;;
21122;SDS011;10719;48.130;11.630;2022-12-31T03:10:19;0.30;;;0.30;;
21122;SDS011;10719;48.130;11.630;2022-12-31T03:12:45;0.20;;;0.20;;
21122;SDS011;10719;48.130;11.630;2022-12-31T03:21:10;0.20;;;0.20;;
21122;SDS011;10719;48.130;11.630;2022-12-31T03:23:55;0.93;;;0.20;;
21122;SDS011;10719;48.130;11.630;2022-12-31T03:26:39;0.65;;;0.20;;
21122;SDS011;10719;48.130;11.630;2022-12-31T03:29:05;0.40;;;0.30;;
21122;SDS011;10719;48.130;11.630;2022-12-31T03:31:30;0.10;;;0.10;;
21122;SDS011;10719;48.130;11.630;2022-12-31T03:33:56;0.10;;;0.10;;
21122;SDS011;10719;48.130;11.630;2022-12-31T03:36:22;0.20;;;0.20;;
21122;SDS011;10719;48.130;11.630;2022-12-31T03:38:47;0.20;;;0.20;;
21122;SDS011;10719;48.130;11.630;2022-12-31T03:41:13;0.20;;;0.20;;
21122;SDS011;10719;48.130;11.630;2022-12-31T03:43:38;0.38;;;0.38;;
21122;SDS011;10719;48.130;11.630;2022-12-31T03:46:04;0.20;;;0.20;;
21122;SDS011;10719;48.130;11.630;2022-12-31T03:48:29;0.20;;;0.20;;
21122;SDS011;10719;48.130;11.630;2022-12-31T03:50:55;0.17;;;0.17;;
21122;SDS011;10719;48.130;11.630;2022-12-31T03:53:20;0.52;;;0.30;;
21122;SDS011;10719;48.130;11.630;2022-12-31T03:55:50;1.45;;;0.20;;
21122;SDS011;10719;48.130;11.630;2022-12-31T03:58:16;0.20;;;0.20;;
21122;SDS011;10719;48.130;11.630;2022-12-31T04:00:42;0.20;;;0.20;;
21122;SDS011;10719;48.130;11.630;2022-12-31T04:03:08;0.20;;;0.20;;
21122;SDS011;10719;48.130;11.630;2022-12-31T04:05:33;0.20;;;0.20;;
21122;SDS011;10719;48.130;11.630;2022-12-31T04:07:59;0.85;;;0.38;;
21122;SDS011;10719;48.130;11.630;2022-12-31T04:10:24;0.20;;;0.20;;
21122;SDS011;10719;48.130;11.630;2022-12-31T04:12:50;0.20;;;0.20;;
21122;SDS011;10719;48.130;11.630;2022-12-31T04:15:17;0.55;;;0.30;;
21122;SDS011;10719;48.130;11.630;2022-12-31T04:17:44;0.25;;;0.25;;
21122;SDS011;10719;48.130;11.630;2022-12-31T04:20:10;0.17;;;0.17;;
21122;SDS011;10719;48.130;11.630;2022-12-31T04:22:36;0.38;;;0.25;;
21122;SDS011;10719;48.130;11.630;2022-12-31T04:25:02;0.35;;;0.22;;
21122;SDS011;10719;48.130;11.630;2022-12-31T04:27:29;0.55;;;0.35;;
21122;SDS011;10719;48.130;11.630;2022-12-31T04:29:54;0.15;;;0.15;;
21122;SDS011;10719;48.130;11.630;2022-12-31T04:32:20;0.63;;;0.20;;
21122;SDS011;10719;48.130;11.630;2022-12-31T04:34:46;0.20;;;0.20;;
21122;SDS011;10719;48.130;11.630;2022-12-31T04:37:11;0.30;;;0.25;;
21122;SDS011;10719;48.130;11.630;2022-12-31T04:39:37;1.50;;;0.30;;
21122;SDS011;10719;48.130;11.630;2022-12-31T04:42:02;0.20;;;0.20;;
21122;SDS011;10719;48.130;11.630;2022-12-31T04:44:28;0.20;;;0.20;;
21122;SDS011;10719;48.130;11.630;2022-12-31T04:46:53;0.20;;;0.20;;
21122;SDS011;10719;48.130;11.630;2022-12-31T04:49:19;0.40;;;0.35;;
21122;SDS011;10719;48.130;11.630;2022-12-31T04:51:45;0.13;;;0.13;;
21122;SDS011;10719;48.130;11.630;2022-12-31T04:54:10;0.40;;;0.38;;
21122;SDS011;10719;48.130;11.630;2022-12-31T04:56:36;0.20;;;0.20;;
21122;SDS011;10719;48.130;11.630;2022-12-31T04:59:02;0.38;;;0.30;;
21122;SDS011;10719;48.130;11.630;2022-12-31T05:01:29;0.20;;;0.20;;
21122;SDS011;10719;48.130;11.630;2022-12-31T05:03:55;0.28;;;0.28;;
21122;SDS011;10719;48.130;11.630;2022-12-31T05:06:21;0.10;;;0.10;;
21122;SDS011;10719;48.130;11.630;2022-12-31T05:08:48;0.10;;;0.10;;
21122;SDS011;10719;48.130;11.630;2022-12-31T05:11:14;0.20;;;0.20;;
21122;SDS011;10719;48.130;11.630;2022-12-31T05:13:41;0.20;;;0.20;;
21122;SDS011;10719;48.130;11.630;2022-12-31T05:16:07;0.17;;;0.17;;
21122;SDS011;10719;48.130;11.630;2022-12-31T05:18:33;0.20;;;0.20;;
21122;SDS011;10719;48.130;11.630;2022-12-31T05:20:59;1.95;;;0.25;;
21122;SDS011;10719;48.130;11.630;2022-12-31T05:23:25;0.20;;;0.20;;
21122;SDS011;10719;48.130;11.630;2022-12-31T05:25:51;0.15;;;0.15;;
21122;SDS011;10719;48.130;11.630;2022-12-31T05:28:17;0.52;;;0.22;;
21122;SDS011;10719;48.130;11.630;2022-12-31T05:30:43;0.75;;;0.20;;
21122;SDS011;10719;48.130;11.630;2022-12-31T05:33:09;0.35;;;0.30;;
21122;SDS011;10719;48.130;11.630;2022-12-31T05:35:35;0.30;;;0.30;;
21122;SDS011;10719;48.130;11.630;2022-12-31T05:38:01;1.10;;;0.45;;
21122;SDS011;10719;48.130;11.630;2022-12-31T05:40:26;0.20;;;0.20;;
21122;SDS011;10719;48.130;11.630;2022-12-31T05:42:52;0.60;;;0.30;;
21122;SDS011;10719;48.130;11.630;2022-12-31T05:45:18;0.20;;;0.20;;
21122;SDS011;10719;48.130;11.630;2022-12-31T05:47:43;0.20;;;0.20;;
21122;SDS011;10719;48.130;11.630;2022-12-31T05:50:10;0.20;;;0.20;;
21122;SDS011;10719;48.130;11.630;2022-12-31T05:52:39;0.20;;;0.20;;
21122;SDS011;10719;48.130;11.630;2022-12-31T05:55:05;0.20;;;0.20;;
21122;SDS011;10719;48.130;11.630;2022-12-31T05:57:31;0.20;;;0.20;;
21122;SDS011;10719;48.130;11.630;2022-12-31T05:59:57;0.30;;;0.20;;
21122;SDS011;10719;48.130;11.630;2022-12-31T06:02:22;0.30;;;0.30;;
21122;SDS011;10719;48.130;11.630;2022-12-31T06:04:48;0.20;;;0.20;;
21122;SDS011;10719;48.130;11.630;2022-12-31T06:07:14;0.20;;;0.20;;
21122;SDS011;10719;48.130;11.630;2022-12-31T06:09:39;0.32;;;0.32;;
21122;SDS011;10719;48.130;11.630;2022-12-31T06:12:05;0.25;;;0.25;;
21122;SDS011;10719;48.130;11.630;2022-12-31T06:14:31;0.43;;;0.38;;
21122;SDS011;10719;48.130;11.630;2022-12-31T06:16:57;0.20;;;0.20;;
21122;SDS011;10719;48.130;11.630;2022-12-31T06:19:23;0.20;;;0.20;;
21122;SDS011;10719;48.130;11.630;2022-12-31T06:21:48;0.95;;;0.50;;
21122;SDS011;10719;48.130;11.630;2022-12-31T06:24:14;0.28;;;0.20;;
21122;SDS011;10719;48.130;11.630;2022-12-31T06:26:40;0.25;;;0.25;;
21122;SDS011;10719;48.130;11.630;2022-12-31T06:29:06;0.20;;;0.20;;
21122;SDS011;10719;48.130;11.630;2022-12-31T06:31:32;0.68;;;0.38;;
21122;SDS011;10719;48.130;11.630;2022-12-31T06:33:57;0.30;;;0.28;;
21122;SDS011;10719;48.130;11.630;2022-12-31T06:36:23;0.20;;;0.20;;
21122;SDS011;10719;48.130;11.630;2022-12-31T06:38:49;0.30;;;0.30;;
21122;SDS011;10719;48.130;11.630;2022-12-31T06:41:15;0.73;;;0.40;;
21122;SDS011;10719;48.130;11.630;2022-12-31T06:43:42;0.38;;;0.30;;
21122;SDS011;10719;48.130;11.630;2022-12-31T06:46:09;0.38;;;0.38;;
21122;SDS011;10719;48.130;11.630;2022-12-31T06:48:37;2.38;;;0.30;;
21122;SDS011;10719;48.130;11.630;2022-12-31T06:51:06;0.73;;;0.50;;
21122;SDS011;10719;48.130;11.630;2022-12-31T06:53:41;0.60;;;0.47;;
21122;SDS011;10719;48.130;11.630;2022-12-31T06:56:23;0.30;;;0.30;;
21122;SDS011;10719;48.130;11.630;2022-12-31T06:58:52;0.35;;;0.30;;
21122;SDS011;10719;48.130;11.630;2022-12-31T07:06:24;1.65;;;0.50;;
21122;SDS011;10719;48.130;11.630;2022-12-31T07:09:42;1.77;;;0.50;;
21122;SDS011;10719;48.130;11.630;2022-12-31T07:22:14;0.38;;;0.35;;
21122;SDS011;10719;48.130;11.630;2022-12-31T07:24:41;0.20;;;0.20;;
21122;SDS011;10719;48.130;11.630;2022-12-31T07:30:08;0.30;;;0.30;;
21122;SDS011;10719;48.130;11.630;2022-12-31T07:35:34;0.30;;;0.30;;
21122;SDS011;10719;48.130;11.630;2022-12-31T07:43:32;0.88;;;0.43;;
21122;SDS011;10719;48.130;11.630;2022-12-31T07:46:51;1.38;;;0.57;;
21122;SDS011;10719;48.130;11.630;2022-12-31T07:49:09;0.30;;;0.30;;
21122;SDS011;10719;48.130;11.630;2022-12-31T07:51:36;0.55;;;0.40;;
21122;SDS011;10719;48.130;11.630;2022-12-31T07:54:02;0.20;;;0.20;;
21122;SDS011;10719;48.130;11.630;2022-12-31T07:56:28;0.30;;;0.30;;
21122;SDS011;10719;48.130;11.630;2022-12-31T07:59:16;0.60;;;0.38;;
21122;SDS011;10719;48.130;11.630;2022-12-31T08:02:05;0.30;;;0.30;;
21122;SDS011;10719;48.130;11.630;2022-12-31T08:04:43;0.40;;;0.40;;
21122;SDS011;10719;48.130;11.630;2022-12-31T08:12:31;1.33;;;0.40;;
21122;SDS011;10719;48.130;11.630;2022-12-31T08:14:58;0.30;;;0.30;;
21122;SDS011;10719;48.130;11.630;2022-12-31T08:17:24;0.93;;;0.40;;
21122;SDS011;10719;48.130;11.630;2022-12-31T08:19:50;0.35;;;0.35;;
21122;SDS011;10719;48.130;11.630;2022-12-31T08:30:22;0.30;;;0.30;;
21122;SDS011;10719;48.130;11.630;2022-12-31T08:33:34;0.82;;;0.38;;
21122;SDS011;10719;48.130;11.630;2022-12-31T08:36:36;0.63;;;0.38;;
21122;SDS011;10719;48.130;11.630;2022-12-31T08:42:13;1.90;;;0.52;;
21122;SDS011;10719;48.130;11.630;2022-12-31T08:45:06;0.63;;;0.50;;
21122;SDS011;10719;48.130;11.630;2022-12-31T08:50:12;4.40;;;1.20;;
21122;SDS011;10719;48.130;11.630;2022-12-31T08:52:42;1.20;;;0.57;;
21122;SDS011;10719;48.130;11.630;2022-12-31T08:55:12;1.27;;;0.55;;
21122;SDS011;10719;48.130;11.630;2022-12-31T09:00:11;1.70;;;0.60;;
21122;SDS011;10719;48.130;11.630;2022-12-31T09:05:25;1.75;;;0.65;;
21122;SDS011;10719;48.130;11.630;2022-12-31T09:16:00;1.08;;;0.43;;
21122;SDS011;10719;48.130;11.630;2022-12-31T09:18:33;2.45;;;0.75;;
21122;SDS011;10719;48.130;11.630;2022-12-31T09:21:04;1.85;;;0.73;;
21122;SDS011;10719;48.130;11.630;2022-12-31T09:23:30;2.70;;;0.80;;
21122;SDS011;10719;48.130;11.630;2022-12-31T09:31:30;2.83;;;0.70;;
21122;SDS011;10719;48.130;11.630;2022-12-31T09:34:06;1.30;;;0.57;;
21122;SDS011;10719;48.130;11.630;2022-12-31T09:36:49;1.88;;;0.60;;
21122;SDS011;10719;48.130;11.630;2022-12-31T09:39:37;6.60;;;0.85;;
21122;SDS011;10719;48.130;11.630;2022-12-31T09:45:21;1.58;;;0.50;;
21122;SDS011;10719;48.130;11.630;2022-12-31T09:56:35;0.73;;;0.57;;
21122;SDS011;10719;48.130;11.630;2022-12-31T09:59:12;0.50;;;0.40;;
21122;SDS011;10719;48.130;11.630;2022-12-31T10:01:49;0.57;;;0.38;;
21122;SDS011;10719;48.130;11.630;2022-12-31T10:07:48;0.93;;;0.30;;
21122;SDS011;10719;48.130;11.630;2022-12-31T10:10:39;2.20;;;0.65;;
21122;SDS011;10719;48.130;11.630;2022-12-31T10:13:09;2.13;;;0.45;;
21122;SDS011;10719;48.130;11.630;2022-12-31T10:15:45;1.83;;;0.50;;
21122;SDS011;10719;48.130;11.630;2022-12-31T10:18:22;0.55;;;0.43;;
21122;SDS011;10719;48.130;11.630;2022-12-31T10:26:25;0.30;;;0.30;;
21122;SDS011;10719;48.130;11.630;2022-12-31T10:34:30;0.20;;;0.20;;
21122;SDS011;10719;48.130;11.630;2022-12-31T10:37:09;0.35;;;0.32;;
21122;SDS011;10719;48.130;11.630;2022-12-31T10:48:36;0.68;;;0.30;;
21122;SDS011;10719;48.130;11.630;2022-12-31T11:13:51;0.75;;;0.20;;
21122;SDS011;10719;48.130;11.630;2022-12-31T11:19:40;1.33;;;0.55;;
21122;SDS011;10719;48.130;11.630;2022-12-31T11:22:31;1.90;;;0.50;;
21122;SDS011;10719;48.130;11.630;2022-12-31T11:25:14;0.70;;;0.38;;
21122;SDS011;10719;48.130;11.630;2022-12-31T11:28:01;0.93;;;0.40;;
21122;SDS011;10719;48.130;11.630;2022-12-31T11:42:11;0.85;;;0.38;;
21122;SDS011;10719;48.130;11.630;2022-12-31T11:50:36;1.67;;;0.75;;
21122;SDS011;10719;48.130;11.630;2022-12-31T11:55:57;1.48;;;0.70;;
21122;SDS011;10719;48.130;11.630;2022-12-31T11:58:33;1.67;;;0.57;;
21122;SDS011;10719;48.130;11.630;2022-12-31T12:00:59;2.10;;;0.50;;
21122;SDS011;10719;48.130;11.630;2022-12-31T12:03:33;0.45;;;0.45;;
21122;SDS011;10719;48.130;11.630;2022-12-31T12:06:03;2.85;;;0.40;;
21122;SDS011;10719;48.130;11.630;2022-12-31T12:08:29;1.30;;;0.60;;
21122;SDS011;10719;48.130;11.630;2022-12-31T12:11:01;0.52;;;0.32;;
21122;SDS011;10719;48.130;11.630;2022-12-31T12:13:30;0.40;;;0.40;;
21122;SDS011;10719;48.130;11.630;2022-12-31T12:15:57;0.85;;;0.40;;
21122;SDS011;10719;48.130;11.630;2022-12-31T12:18:34;0.25;;;0.25;;
21122;SDS011;10719;48.130;11.630;2022-12-31T12:23:39;1.58;;;0.60;;
21122;SDS011;10719;48.130;11.630;2022-12-31T12:26:06;1.65;;;0.47;;
21122;SDS011;10719;48.130;11.630;2022-12-31T12:31:39;3.30;;;0.50;;
21122;SDS011;10719;48.130;11.630;2022-12-31T12:34:05;1.95;;;0.22;;
21122;SDS011;10719;48.130;11.630;2022-12-31T12:36:57;2.83;;;0.60;;
21122;SDS011;10719;48.130;11.630;2022-12-31T12:39:24;1.50;;;0.65;;
21122;SDS011;10719;48.130;11.630;2022-12-31T12:42:09;1.63;;;0.60;;
21122;SDS011;10719;48.130;11.630;2022-12-31T12:44:37;1.05;;;0.47;;
21122;SDS011;10719;48.130;11.630;2022-12-31T12:47:05;0.55;;;0.43;;
21122;SDS011;10719;48.130;11.630;2022-12-31T12:49:47;1.60;;;0.50;;
21122;SDS011;10719;48.130;11.630;2022-12-31T13:06:12;1.02;;;0.40;;
21122;SDS011;10719;48.130;11.630;2022-12-31T13:08:58;0.20;;;0.20;;
21122;SDS011;10719;48.130;11.630;2022-12-31T13:14:32;1.17;;;0.40;;
21122;SDS011;10719;48.130;11.630;2022-12-31T13:20:40;4.68;;;1.15;;
21122;SDS011;10719;48.130;11.630;2022-12-31T13:23:22;2.15;;;0.57;;
21122;SDS011;10719;48.130;11.630;2022-12-31T13:28:32;2.80;;;0.73;;
21122;SDS011;10719;48.130;11.630;2022-12-31T13:31:03;1.70;;;0.60;;
21122;SDS011;10719;48.130;11.630;2022-12-31T13:33:37;3.33;;;0.70;;
21122;SDS011;10719;48.130;11.630;2022-12-31T13:36:08;0.98;;;0.50;;
21122;SDS011;10719;48.130;11.630;2022-12-31T13:38:39;0.38;;;0.35;;
21122;SDS011;10719;48.130;11.630;2022-12-31T13:41:27;0.38;;;0.32;;
21122;SDS011;10719;48.130;11.630;2022-12-31T13:44:03;4.15;;;0.80;;
21122;SDS011;10719;48.130;11.630;2022-12-31T13:46:39;3.83;;;0.75;;
21122;SDS011;10719;48.130;11.630;2022-12-31T13:57:48;2.03;;;0.55;;
21122;SDS011;10719;48.130;11.630;2022-12-31T14:00:27;2.00;;;0.88;;
21122;SDS011;10719;48.130;11.630;2022-12-31T14:03:10;2.00;;;0.70;;
21122;SDS011;10719;48.130;11.630;2022-12-31T14:05:54;1.77;;;0.75;;
21122;SDS011;10719;48.130;11.630;2022-12-31T14:08:24;1.35;;;0.70;;
21122;SDS011;10719;48.130;11.630;2022-12-31T14:13:41;3.67;;;0.82;;
21122;SDS011;10719;48.130;11.630;2022-12-31T14:16:23;1.83;;;0.75;;
21122;SDS011;10719;48.130;11.630;2022-12-31T14:27:04;3.28;;;0.90;;
21122;SDS011;10719;48.130;11.630;2022-12-31T14:29:34;3.50;;;0.90;;
21122;SDS011;10719;48.130;11.630;2022-12-31T14:32:08;3.97;;;1.10;;
21122;SDS011;10719;48.130;11.630;2022-12-31T14:34:49;2.92;;;0.90;;
21122;SDS011;10719;48.130;11.630;2022-12-31T14:37:41;1.75;;;0.85;;
21122;SDS011;10719;48.130;11.630;2022-12-31T14:45:55;3.05;;;1.02;;
21122;SDS011;10719;48.130;11.630;2022-12-31T14:48:59;4.38;;;1.10;;
21122;SDS011;10719;48.130;11.630;2022-12-31T14:51:27;4.40;;;1.27;;
21122;SDS011;10719;48.130;11.630;2022-12-31T14:53:54;5.35;;;1.35;;
21122;SDS011;10719;48.130;11.630;2022-12-31T14:56:31;2.72;;;0.98;;
21122;SDS011;10719;48.130;11.630;2022-12-31T15:02:25;1.20;;;0.60;;
21122;SDS011;10719;48.130;11.630;2022-12-31T15:05:01;1.35;;;0.80;;
21122;SDS011;10719;48.130;11.630;2022-12-31T15:15:48;5.65;;;0.90;;
21122;SDS011;10719;48.130;11.630;2022-12-31T15:23:41;2.85;;;1.17;;
21122;SDS011;10719;48.130;11.630;2022-12-31T15:26:21;4.07;;;1.45;;
21122;SDS011;10719;48.130;11.630;2022-12-31T15:29:05;3.67;;;1.45;;
21122;SDS011;10719;48.130;11.630;2022-12-31T15:31:33;2.72;;;1.38;;
21122;SDS011;10719;48.130;11.630;2022-12-31T15:36:27;7.18;;;1.88;;
21122;SDS011;10719;48.130;11.630;2022-12-31T15:39:21;3.65;;;1.60;;
21122;SDS011;10719;48.130;11.630;2022-12-31T15:42:28;6.53;;;2.00;;
21122;SDS011;10719;48.130;11.630;2022-12-31T15:45:05;4.72;;;1.55;;
21122;SDS011;10719;48.130;11.630;2022-12-31T15:47:36;3.83;;;1.38;;
21122;SDS011;10719;48.130;11.630;2022-12-31T15:50:07;4.13;;;1.60;;
21122;SDS011;10719;48.130;11.630;2022-12-31T15:52:41;8.38;;;2.35;;
21122;SDS011;10719;48.130;11.630;2022-12-31T15:55:13;5.38;;;2.08;;
21122;SDS011;10719;48.130;11.630;2022-12-31T15:58:09;4.80;;;1.75;;
21122;SDS011;10719;48.130;11.630;2022-12-31T16:03:35;5.60;;;2.08;;
21122;SDS011;10719;48.130;11.630;2022-12-31T16:06:02;6.53;;;1.90;;
21122;SDS011;10719;48.130;11.630;2022-12-31T16:08:33;4.35;;;1.45;;
21122;SDS011;10719;48.130;11.630;2022-12-31T16:11:01;5.20;;;1.90;;
21122;SDS011;10719;48.130;11.630;2022-12-31T16:13:31;6.32;;;2.15;;
21122;SDS011;10719;48.130;11.630;2022-12-31T16:16:02;6.72;;;2.05;;
21122;SDS011;10719;48.130;11.630;2022-12-31T16:18:37;5.15;;;1.83;;
21122;SDS011;10719;48.130;11.630;2022-12-31T16:21:03;8.32;;;1.92;;
21122;SDS011;10719;48.130;11.630;2022-12-31T16:23:30;5.38;;;1.92;;
21122;SDS011;10719;48.130;11.630;2022-12-31T16:25:56;8.20;;;2.10;;
21122;SDS011;10719;48.130;11.630;2022-12-31T16:28:27;6.45;;;2.30;;
21122;SDS011;10719;48.130;11.630;2022-12-31T16:31:04;10.90;;;3.63;;
21122;SDS011;10719;48.130;11.630;2022-12-31T16:33:32;10.02;;;3.58;;
21122;SDS011;10719;48.130;11.630;2022-12-31T16:35:59;8.30;;;3.35;;
21122;SDS011;10719;48.130;11.630;2022-12-31T16:38:32;14.30;;;5.20;;
21122;SDS011;10719;48.130;11.630;2022-12-31T16:43:37;13.73;;;4.68;;
21122;SDS011;10719;48.130;11.630;2022-12-31T16:48:48;9.52;;;4.20;;
21122;SDS011;10719;48.130;11.630;2022-12-31T16:51:23;12.20;;;5.05;;
21122;SDS011;10719;48.130;11.630;2022-12-31T16:53:52;17.45;;;6.15;;
21122;SDS011;10719;48.130;11.630;2022-12-31T16:56:25;21.90;;;8.27;;
21122;SDS011;10719;48.130;11.630;2022-12-31T16:58:58;22.17;;;7.78;;
21122;SDS011;10719;48.130;11.630;2022-12-31T17:01:36;15.98;;;6.78;;
21122;SDS011;10719;48.130;11.630;2022-12-31T17:04:05;20.65;;;8.32;;
21122;SDS011;10719;48.130;11.630;2022-12-31T17:06:34;21.02;;;8.25;;
21122;SDS011;10719;48.130;11.630;2022-12-31T17:09:03;24.70;;;7.93;;
21122;SDS011;10719;48.130;11.630;2022-12-31T17:11:41;23.02;;;8.27;;
21122;SDS011;10719;48.130;11.630;2022-12-31T17:16:33;20.83;;;8.85;;
21122;SDS011;10719;48.130;11.630;2022-12-31T17:19:42;24.67;;;9.23;;
21122;SDS011;10719;48.130;11.630;2022-12-31T17:22:12;26.00;;;8.68;;
21122;SDS011;10719;48.130;11.630;2022-12-31T17:25:04;24.00;;;9.57;;
21122;SDS011;10719;48.130;11.630;2022-12-31T17:27:31;25.33;;;10.98;;
21122;SDS011;10719;48.130;11.630;2022-12-31T17:30:18;26.67;;;12.85;;
21122;SDS011;10719;48.130;11.630;2022-12-31T17:37:53;29.42;;;10.75;;
21122;SDS011;10719;48.130;11.630;2022-12-31T17:40:35;28.38;;;12.35;;
21122;SDS011;10719;48.130;11.630;2022-12-31T17:43:02;30.55;;;12.23;;
21122;SDS011;10719;48.130;11.630;2022-12-31T17:45:29;27.10;;;12.23;;
21122;SDS011;10719;48.130;11.630;2022-12-31T17:48:00;25.13;;;12.50;;
21122;SDS011;10719;48.130;11.630;2022-12-31T17:50:26;23.42;;;11.25;;
21122;SDS011;10719;48.130;11.630;2022-12-31T17:52:59;28.58;;;11.57;;
21122;SDS011;10719;48.130;11.630;2022-12-31T17:55:33;25.05;;;10.98;;
21122;SDS011;10719;48.130;11.630;2022-12-31T17:57:59;24.42;;;11.05;;
21122;SDS011;10719;48.130;11.630;2022-12-31T18:00:27;23.48;;;10.95;;
21122;SDS011;10719;48.130;11.630;2022-12-31T18:02:53;24.63;;;11.10;;
21122;SDS011;10719;48.130;11.630;2022-12-31T18:05:20;25.95;;;10.95;;
21122;SDS011;10719;48.130;11.630;2022-12-31T18:07:47;21.73;;;11.15;;
21122;SDS011;10719;48.130;11.630;2022-12-31T18:10:13;25.65;;;11.88;;
21122;SDS011;10719;48.130;11.630;2022-12-31T18:12:41;28.70;;;13.13;;
21122;SDS011;10719;48.130;11.630;2022-12-31T18:15:12;26.65;;;12.60;;
21122;SDS011;10719;48.130;11.630;2022-12-31T18:17:43;27.83;;;13.30;;
21122;SDS011;10719;48.130;11.630;2022-12-31T18:20:08;22.92;;;11.25;;
21122;SDS011;10719;48.130;11.630;2022-12-31T18:22:35;29.20;;;12.63;;
21122;SDS011;10719;48.130;11.630;2022-12-31T18:25:01;27.70;;;14.10;;
21122;SDS011;10719;48.130;11.630;2022-12-31T18:27:28;29.40;;;12.90;;
21122;SDS011;10719;48.130;11.630;2022-12-31T18:29:54;29.42;;;15.05;;
21122;SDS011;10719;48.130;11.630;2022-12-31T18:32:24;28.85;;;12.60;;
21122;SDS011;10719;48.130;11.630;2022-12-31T18:34:52;28.90;;;13.80;;
21122;SDS011;10719;48.130;11.630;2022-12-31T18:37:18;34.60;;;15.38;;
21122;SDS011;10719;48.130;11.630;2022-12-31T18:39:45;35.45;;;15.90;;
21122;SDS011;10719;48.130;11.630;2022-12-31T18:42:11;33.70;;;15.48;;
21122;SDS011;10719;48.130;11.630;2022-12-31T18:44:41;22.25;;;12.27;;
21122;SDS011;10719;48.130;11.630;2022-12-31T18:47:11;30.02;;;16.35;;
21122;SDS011;10719;48.130;11.630;2022-12-31T18:49:37;33.10;;;15.43;;
21122;SDS011;10719;48.130;11.630;2022-12-31T18:52:03;24.60;;;13.25;;
21122;SDS011;10719;48.130;11.630;2022-12-31T18:54:29;26.48;;;14.38;;
21122;SDS011;10719;48.130;11.630;2022-12-31T18:56:55;27.73;;;13.43;;
21122;SDS011;10719;48.130;11.630;2022-12-31T18:59:20;37.55;;;15.95;;
21122;SDS011;10719;48.130;11.630;2022-12-31T19:01:46;21.35;;;10.38;;
21122;SDS011;10719;48.130;11.630;2022-12-31T19:04:15;17.17;;;8.13;;
21122;SDS011;10719;48.130;11.630;2022-12-31T19:06:43;19.02;;;8.15;;
21122;SDS011;10719;48.130;11.630;2022-12-31T19:09:09;17.83;;;7.72;;
21122;SDS011;10719;48.130;11.630;2022-12-31T19:11:36;26.33;;;11.18;;